< < Back
Terminal Aerodrome Forecast


Current Version              Previous Versions:   1  2  3  4  5  6  7  8  9  

Terminal Aerodrome Forecast

913
FTUS42 KFFC 202212 AAB
TAFFTY
TAF AMD
KFTY 202212Z 2022/2118 36003KT P6SM OVC017
     FM210000 02003KT P6SM OVC014
      TEMPO 2100/2103 OVC009
     FM210300 00000KT 5SM BR OVC008
     FM211200 00000KT 2SM BR OVC005
     FM211400 07004KT 3SM BR BKN007 OVC015
     FM211600 08005KT P6SM BKN015=

Latest METAR

772
SAUS70 KWBC 210100 RRE
MTRFTY
METAR KFTY 210053Z 35003KT 8SM OVC015 09/07 A3019 RMK AO2 SLP226
T00940067


USA.gov is the U.S. government's official web portal to all federal, state and local government web resources and services.